createdAt,value
2022-10-19T00:00:09.498Z,8.7
2022-10-19T00:03:09.431Z,8.6
2022-10-19T00:06:09.611Z,8.6
2022-10-19T00:09:09.569Z,8.6
2022-10-19T00:12:09.628Z,8.6
2022-10-19T00:15:09.466Z,8.5
2022-10-19T00:18:09.495Z,8.5
2022-10-19T00:21:09.485Z,8.4
2022-10-19T00:24:09.509Z,8.4
2022-10-19T00:27:09.508Z,8.4
2022-10-19T00:30:09.565Z,8.3
2022-10-19T00:33:09.538Z,8.3
2022-10-19T00:36:09.574Z,8.3
2022-10-19T00:39:09.698Z,8.3
2022-10-19T00:42:09.513Z,8.3
2022-10-19T00:45:09.561Z,8.3
2022-10-19T00:48:09.549Z,8.3
2022-10-19T00:51:09.652Z,8.3
2022-10-19T00:54:09.571Z,8.3
2022-10-19T00:57:09.547Z,8.3
2022-10-19T01:00:09.584Z,8.4
2022-10-19T01:03:09.547Z,8.5
2022-10-19T01:06:09.582Z,8.6
2022-10-19T01:09:09.503Z,8.6
2022-10-19T01:12:09.516Z,8.8
2022-10-19T01:15:09.523Z,8.8
2022-10-19T01:18:09.524Z,8.9
2022-10-19T01:21:09.532Z,8.9
2022-10-19T01:24:09.521Z,9
2022-10-19T01:27:10.064Z,9
2022-10-19T01:30:09.521Z,9.1
2022-10-19T01:33:09.503Z,9
2022-10-19T01:36:09.468Z,9
2022-10-19T01:39:09.477Z,9
2022-10-19T01:42:09.451Z,9
2022-10-19T01:45:09.554Z,9
2022-10-19T01:48:09.603Z,9.1
2022-10-19T01:51:09.485Z,9.1
2022-10-19T01:54:09.488Z,9.2
2022-10-19T01:57:09.425Z,9.2
2022-10-19T02:00:09.520Z,9.2
2022-10-19T02:03:09.490Z,9.3
2022-10-19T02:06:09.515Z,9.3
2022-10-19T02:09:09.509Z,9.3
2022-10-19T02:12:09.719Z,9.3
2022-10-19T02:15:09.851Z,9.3
2022-10-19T02:18:09.513Z,9.4
2022-10-19T02:21:09.789Z,9.4
2022-10-19T02:24:09.487Z,9.4
2022-10-19T02:27:09.496Z,9.4
2022-10-19T02:30:09.485Z,9.5
2022-10-19T02:33:09.513Z,9.5
2022-10-19T02:36:09.449Z,9.6
2022-10-19T02:39:09.508Z,9.6
2022-10-19T02:42:09.511Z,9.6
2022-10-19T02:45:09.486Z,9.6
2022-10-19T02:48:09.501Z,9.6
2022-10-19T02:51:09.513Z,9.5
2022-10-19T02:54:14.322Z,9.6
2022-10-19T02:57:09.488Z,9.6
2022-10-19T03:00:09.534Z,9.6
2022-10-19T03:03:09.517Z,9.6
2022-10-19T03:06:09.485Z,9.6
2022-10-19T03:09:09.525Z,9.7
2022-10-19T03:12:09.577Z,9.7
2022-10-19T03:15:09.568Z,9.6
2022-10-19T03:18:09.599Z,9.6
2022-10-19T03:21:09.605Z,9.6
2022-10-19T03:24:09.554Z,9.7
2022-10-19T03:27:09.557Z,9.7
2022-10-19T03:30:09.593Z,9.7
2022-10-19T03:33:09.632Z,9.7
2022-10-19T03:36:09.560Z,9.7
2022-10-19T03:39:09.524Z,9.7
2022-10-19T03:42:09.559Z,9.7
2022-10-19T03:45:09.541Z,9.7
2022-10-19T03:48:10.040Z,9.7
2022-10-19T03:51:09.508Z,9.7
2022-10-19T03:54:09.575Z,9.7
2022-10-19T03:57:09.502Z,9.7
2022-10-19T04:00:09.566Z,9.7
2022-10-19T04:03:09.508Z,9.6
2022-10-19T04:06:09.550Z,9.6
2022-10-19T04:09:09.521Z,9.7
2022-10-19T04:12:09.573Z,9.7
2022-10-19T04:15:09.536Z,9.7
2022-10-19T04:18:09.536Z,9.7
2022-10-19T04:21:09.695Z,9.7
2022-10-19T04:24:09.547Z,9.8
2022-10-19T04:27:09.495Z,9.8
2022-10-19T04:30:09.678Z,9.8
2022-10-19T04:33:09.558Z,9.8
2022-10-19T04:36:09.603Z,9.8
2022-10-19T04:39:09.573Z,9.8
2022-10-19T04:42:10.253Z,9.8
2022-10-19T04:45:09.545Z,9.8
2022-10-19T04:48:09.533Z,9.8
2022-10-19T04:51:09.526Z,9.8
2022-10-19T04:54:09.789Z,9.8
2022-10-19T04:57:09.944Z,9.8
2022-10-19T05:00:09.499Z,9.8
2022-10-19T05:03:09.473Z,9.7
2022-10-19T05:06:09.622Z,9.7
2022-10-19T05:09:09.527Z,9.7
2022-10-19T05:12:09.547Z,9.8
2022-10-19T05:15:09.541Z,9.7
2022-10-19T05:18:09.526Z,9.7
2022-10-19T05:21:09.602Z,9.7
2022-10-19T05:24:09.559Z,9.7
2022-10-19T05:27:09.614Z,9.6
2022-10-19T05:30:09.547Z,9.7
2022-10-19T05:33:09.521Z,9.6
2022-10-19T05:36:09.527Z,9.6
2022-10-19T05:39:09.583Z,9.6
2022-10-19T05:42:09.521Z,9.6
2022-10-19T05:45:09.504Z,9.6
2022-10-19T05:48:09.564Z,9.6
2022-10-19T05:51:09.480Z,9.7
2022-10-19T05:54:09.595Z,9.7
2022-10-19T05:57:09.575Z,9.7
2022-10-19T06:00:09.603Z,9.7
2022-10-19T06:03:09.590Z,9.7
2022-10-19T06:06:09.554Z,9.7
2022-10-19T06:09:09.557Z,9.8
2022-10-19T06:12:09.606Z,9.8
2022-10-19T06:15:09.545Z,9.8
2022-10-19T06:18:09.602Z,9.8
2022-10-19T06:21:09.561Z,9.8
2022-10-19T06:24:09.606Z,9.9
2022-10-19T06:27:09.578Z,9.8
2022-10-19T06:30:09.525Z,9.8
2022-10-19T06:33:09.824Z,9.9
2022-10-19T06:36:09.548Z,9.9
2022-10-19T06:39:09.632Z,9.9
2022-10-19T06:42:09.600Z,9.9
2022-10-19T06:45:09.603Z,9.9
2022-10-19T06:48:16.392Z,10
2022-10-19T06:51:12.668Z,10.1
2022-10-19T06:54:09.599Z,10.2
2022-10-19T06:57:09.535Z,10.2
2022-10-19T07:00:10.474Z,10.3
2022-10-19T07:03:09.644Z,10.4
2022-10-19T07:06:09.508Z,10.4
2022-10-19T07:09:09.586Z,10.5
2022-10-19T07:12:09.605Z,10.6
2022-10-19T07:15:09.651Z,10.7
2022-10-19T07:18:09.570Z,10.8
2022-10-19T07:21:09.564Z,10.9
2022-10-19T07:24:09.585Z,11.1
2022-10-19T07:27:09.565Z,11.1
2022-10-19T07:30:09.631Z,11.2
2022-10-19T07:33:09.783Z,11.3
2022-10-19T07:36:09.610Z,11.3
2022-10-19T07:39:09.525Z,11.4
2022-10-19T07:42:09.745Z,11.5
2022-10-19T07:45:09.641Z,11.6
2022-10-19T07:48:09.484Z,11.6
2022-10-19T07:51:09.540Z,11.6
2022-10-19T07:54:09.582Z,11.8
2022-10-19T07:57:09.550Z,11.8
2022-10-19T08:00:09.652Z,11.9
2022-10-19T08:06:09.578Z,12
2022-10-19T08:09:13.378Z,12.2
2022-10-19T08:12:16.028Z,12.4
2022-10-19T08:15:09.614Z,12.6
2022-10-19T08:18:09.531Z,13
2022-10-19T08:21:09.590Z,13.1
2022-10-19T08:24:09.687Z,13.3
2022-10-19T08:27:09.561Z,13.3
2022-10-19T08:30:09.633Z,13.1
2022-10-19T08:33:09.543Z,13
2022-10-19T08:36:09.578Z,13
2022-10-19T08:39:09.624Z,13.1
2022-10-19T08:42:09.622Z,13
2022-10-19T08:45:09.593Z,12.9
2022-10-19T08:48:09.551Z,12.8
2022-10-19T08:51:09.505Z,12.7
2022-10-19T08:54:09.649Z,12.6
2022-10-19T08:57:09.614Z,12.5
2022-10-19T09:00:09.685Z,12.4
2022-10-19T09:03:09.557Z,12.2
2022-10-19T09:06:09.710Z,12.1
2022-10-19T09:09:09.952Z,12.1
2022-10-19T09:12:09.617Z,12.2
2022-10-19T09:15:09.650Z,12.3
2022-10-19T09:18:09.556Z,12.4
2022-10-19T09:21:09.565Z,12.6
2022-10-19T09:24:09.537Z,12.8
2022-10-19T09:27:09.572Z,12.9
2022-10-19T09:30:09.727Z,13.1
2022-10-19T09:33:14.575Z,12.9
2022-10-19T09:36:14.825Z,12.8
2022-10-19T09:39:09.492Z,12.7
2022-10-19T09:42:09.653Z,12.8
2022-10-19T09:45:09.514Z,13
2022-10-19T09:48:22.107Z,13.3
2022-10-19T09:51:09.542Z,13.3
2022-10-19T09:54:09.493Z,13.1
2022-10-19T09:57:09.672Z,13.2
2022-10-19T10:00:09.716Z,13.3
2022-10-19T10:03:09.652Z,13.1
2022-10-19T10:06:09.637Z,13.1
2022-10-19T10:09:10.114Z,13.2
2022-10-19T10:12:09.562Z,13.3
2022-10-19T10:15:09.634Z,13.4
2022-10-19T10:18:09.581Z,13.4
2022-10-19T10:21:12.521Z,13.3
2022-10-19T10:24:09.542Z,13.4
2022-10-19T10:27:09.642Z,13.8
2022-10-19T10:30:09.677Z,13.9
2022-10-19T10:33:50.187Z,13.8
2022-10-19T10:36:09.622Z,13.7
2022-10-19T10:39:09.757Z,13.6
2022-10-19T10:42:09.870Z,13.5
2022-10-19T10:45:09.564Z,14.1
2022-10-19T10:48:09.786Z,14.3
2022-10-19T10:51:09.584Z,14.1
2022-10-19T10:54:09.542Z,13.6
2022-10-19T10:57:16.744Z,13.3
2022-10-19T11:00:09.659Z,13.1
2022-10-19T11:03:09.578Z,12.9
2022-10-19T11:06:09.531Z,12.8
2022-10-19T11:09:10.269Z,13
2022-10-19T11:12:09.569Z,13.6
2022-10-19T11:15:09.735Z,13.9
2022-10-19T11:18:09.559Z,13.8
2022-10-19T11:21:09.540Z,13.8
2022-10-19T11:24:09.605Z,14.1
2022-10-19T11:27:09.625Z,14.6
2022-10-19T11:30:09.618Z,14.6
2022-10-19T11:33:09.538Z,14.3
2022-10-19T11:36:10.245Z,14.7
2022-10-19T11:39:09.505Z,14.7
2022-10-19T11:42:09.689Z,15.1
2022-10-19T11:45:09.589Z,15.5
2022-10-19T11:48:09.683Z,16
2022-10-19T11:51:30.700Z,15.9
2022-10-19T11:54:14.817Z,15.3
2022-10-19T11:57:19.908Z,15.4
2022-10-19T12:00:44.829Z,15.3
2022-10-19T12:03:12.929Z,15.7
2022-10-19T12:06:09.571Z,16.1
2022-10-19T12:09:09.868Z,16.9
2022-10-19T12:12:09.542Z,17.4
2022-10-19T12:15:09.557Z,17.4
2022-10-19T12:18:09.668Z,17.1
2022-10-19T12:21:09.538Z,16.5
2022-10-19T12:24:09.593Z,16.5
2022-10-19T12:27:09.886Z,16.4
2022-10-19T12:30:09.647Z,16.3
2022-10-19T12:33:09.620Z,15.9
2022-10-19T12:36:09.572Z,15.6
2022-10-19T12:39:09.890Z,15.3
2022-10-19T12:42:09.546Z,15.3
2022-10-19T12:45:09.613Z,15.2
2022-10-19T12:48:10.455Z,14.9
2022-10-19T12:51:09.557Z,14.4
2022-10-19T12:54:09.539Z,14.2
2022-10-19T12:57:09.616Z,14.3
2022-10-19T13:00:09.732Z,14.1
2022-10-19T13:03:09.570Z,13.9
2022-10-19T13:06:09.603Z,13.7
2022-10-19T13:09:10.037Z,13.6
2022-10-19T13:12:09.612Z,13.6
2022-10-19T13:15:09.594Z,13.9
2022-10-19T13:18:09.584Z,14
2022-10-19T13:21:15.142Z,13.9
2022-10-19T13:24:09.644Z,13.8
2022-10-19T13:27:09.525Z,13.7
2022-10-19T13:30:10.041Z,13.8
2022-10-19T13:33:09.548Z,13.8
2022-10-19T13:36:09.821Z,13.8
2022-10-19T13:39:09.708Z,13.4
2022-10-19T13:42:09.707Z,13.4
2022-10-19T13:45:09.524Z,13.3
2022-10-19T13:48:09.597Z,13.2
2022-10-19T13:51:09.591Z,13.2
2022-10-19T13:54:09.625Z,13.1
2022-10-19T13:57:09.661Z,13.1
2022-10-19T14:00:09.760Z,13
2022-10-19T14:03:16.170Z,13.1
2022-10-19T14:06:09.585Z,13
2022-10-19T14:09:10.195Z,13
2022-10-19T14:12:09.585Z,12.9
2022-10-19T14:15:09.760Z,13
2022-10-19T14:18:23.623Z,13.2
2022-10-19T14:21:09.623Z,13.4
2022-10-19T14:24:09.538Z,13.3
2022-10-19T14:27:09.600Z,13.1
2022-10-19T14:30:09.712Z,13.1
2022-10-19T14:33:11.644Z,13.1
2022-10-19T14:36:09.624Z,13.1
2022-10-19T14:39:09.646Z,12.9
2022-10-19T14:42:12.942Z,12.7
2022-10-19T14:45:09.627Z,12.7
2022-10-19T14:48:09.599Z,12.6
2022-10-19T14:51:09.668Z,12.4
2022-10-19T14:54:09.548Z,12.2
2022-10-19T14:57:09.582Z,12.1
2022-10-19T15:00:09.776Z,12.1
2022-10-19T15:03:09.523Z,12
2022-10-19T15:06:09.553Z,11.9
2022-10-19T15:09:30.185Z,11.8
2022-10-19T15:12:09.643Z,11.7
2022-10-19T15:15:09.569Z,11.7
2022-10-19T15:18:36.692Z,11.6
2022-10-19T15:21:21.790Z,11.5
2022-10-19T15:24:09.545Z,11.4
2022-10-19T15:27:18.505Z,11.3
2022-10-19T15:30:09.715Z,11.2
2022-10-19T15:33:09.576Z,11.1
2022-10-19T15:39:49.908Z,10.8
2022-10-19T15:42:09.548Z,10.8
2022-10-19T15:45:09.592Z,10.7
2022-10-19T15:48:09.594Z,10.6
2022-10-19T15:51:09.556Z,10.5
2022-10-19T15:54:09.632Z,10.4
2022-10-19T15:57:09.591Z,10.4
2022-10-19T16:00:09.733Z,10.2
2022-10-19T16:03:09.574Z,10.1
2022-10-19T16:06:09.587Z,10
2022-10-19T16:09:10.211Z,9.9
2022-10-19T16:12:10.269Z,9.8
2022-10-19T16:15:09.653Z,9.8
2022-10-19T16:18:09.560Z,9.7
2022-10-19T16:21:09.561Z,9.7
2022-10-19T16:24:09.476Z,9.8
2022-10-19T16:27:09.487Z,9.8
2022-10-19T16:30:09.575Z,9.7
2022-10-19T16:33:09.514Z,9.6
2022-10-19T16:36:09.480Z,9.6
2022-10-19T16:39:09.548Z,9.5
2022-10-19T16:42:09.690Z,9.4
2022-10-19T16:45:09.524Z,9.3
2022-10-19T16:48:09.614Z,9.3
2022-10-19T16:51:09.497Z,9.1
2022-10-19T16:54:09.486Z,8.9
2022-10-19T16:57:16.028Z,8.8
2022-10-19T17:00:09.712Z,8.8
2022-10-19T17:03:09.450Z,8.6
2022-10-19T17:06:09.550Z,8.5
2022-10-19T17:09:57.342Z,8.4
2022-10-19T17:12:09.575Z,8.3
2022-10-19T17:15:51.731Z,8.3
2022-10-19T17:18:09.695Z,8.2
2022-10-19T17:21:09.562Z,8.1
2022-10-19T17:24:09.518Z,7.9
2022-10-19T17:27:09.622Z,7.6
2022-10-19T17:30:09.662Z,7.4
2022-10-19T17:33:09.595Z,7.2
2022-10-19T17:36:09.557Z,7
2022-10-19T17:39:09.566Z,6.8
2022-10-19T17:42:09.536Z,6.7
2022-10-19T17:45:09.491Z,6.6
2022-10-19T17:48:09.468Z,6.4
2022-10-19T17:51:09.618Z,6.4
2022-10-19T17:54:09.483Z,6.3
2022-10-19T17:57:09.634Z,6.2
2022-10-19T18:00:09.539Z,6.3
2022-10-19T18:03:10.148Z,6.2
2022-10-19T18:06:15.362Z,6.2
2022-10-19T18:09:10.104Z,6.1
2022-10-19T18:12:16.309Z,6
2022-10-19T18:15:09.512Z,5.9
2022-10-19T18:18:09.578Z,5.8
2022-10-19T18:21:09.494Z,5.6
2022-10-19T18:24:14.243Z,5.6
2022-10-19T18:27:09.531Z,5.4
2022-10-19T18:30:09.626Z,5.4
2022-10-19T18:33:09.493Z,5.3
2022-10-19T18:36:09.640Z,5.2
2022-10-19T18:39:09.527Z,5.1
2022-10-19T18:42:09.553Z,4.9
2022-10-19T18:45:09.492Z,4.8
2022-10-19T18:48:09.585Z,4.8
2022-10-19T18:51:09.450Z,4.9
2022-10-19T18:54:09.529Z,4.8
2022-10-19T18:57:09.604Z,4.7
2022-10-19T19:00:09.604Z,4.6
2022-10-19T19:03:09.614Z,4.6
2022-10-19T19:06:09.552Z,4.6
2022-10-19T19:09:09.586Z,4.6
2022-10-19T19:12:09.650Z,4.7
2022-10-19T19:15:09.543Z,4.9
2022-10-19T19:18:09.713Z,4.9
2022-10-19T19:21:09.467Z,4.7
2022-10-19T19:24:09.571Z,4.5
2022-10-19T19:27:09.492Z,4.4
2022-10-19T19:30:09.518Z,4.2
2022-10-19T19:33:09.593Z,4.1
2022-10-19T19:36:09.502Z,4.1
2022-10-19T19:39:09.516Z,4
2022-10-19T19:42:09.554Z,4
2022-10-19T19:45:09.486Z,3.9
2022-10-19T19:48:09.527Z,3.9
2022-10-19T19:51:09.632Z,3.9
2022-10-19T19:54:09.583Z,3.8
2022-10-19T19:57:09.505Z,3.8
2022-10-19T20:00:09.552Z,3.9
2022-10-19T20:03:09.482Z,3.8
2022-10-19T20:06:09.552Z,3.8
2022-10-19T20:09:09.935Z,3.9
2022-10-19T20:12:09.541Z,3.9
2022-10-19T20:15:09.495Z,3.9
2022-10-19T20:18:09.611Z,3.8
2022-10-19T20:21:09.568Z,4
2022-10-19T20:24:09.709Z,4
2022-10-19T20:27:09.540Z,4.1
2022-10-19T20:30:09.522Z,4
2022-10-19T20:33:09.595Z,3.9
2022-10-19T20:36:09.545Z,4.1
2022-10-19T20:39:09.494Z,4.1
2022-10-19T20:42:09.544Z,4.1
2022-10-19T20:45:10.087Z,4.1
2022-10-19T20:48:09.830Z,4.1
2022-10-19T20:51:09.588Z,4.1
2022-10-19T20:54:09.602Z,3.9
2022-10-19T20:57:09.581Z,3.8
2022-10-19T21:00:09.545Z,3.7
2022-10-19T21:03:09.550Z,3.7
2022-10-19T21:06:09.589Z,3.8
2022-10-19T21:09:10.164Z,3.8
2022-10-19T21:12:09.704Z,3.9
2022-10-19T21:15:09.576Z,3.9
2022-10-19T21:18:09.606Z,4.1
2022-10-19T21:21:09.468Z,4.1
2022-10-19T21:24:09.518Z,4.1
2022-10-19T21:27:09.687Z,4
2022-10-19T21:30:09.489Z,4
2022-10-19T21:33:09.511Z,4
2022-10-19T21:36:09.514Z,4
2022-10-19T21:39:09.712Z,4
2022-10-19T21:42:09.572Z,4.1
2022-10-19T21:45:39.504Z,4.2
2022-10-19T21:48:09.499Z,4.2
2022-10-19T21:51:09.453Z,4.1
2022-10-19T21:57:09.508Z,3.9
2022-10-19T22:00:09.882Z,3.7
2022-10-19T22:03:09.787Z,3.7
2022-10-19T22:06:09.526Z,3.6
2022-10-19T22:09:10.349Z,3.7
2022-10-19T22:12:09.987Z,3.7
2022-10-19T22:15:09.567Z,3.9
2022-10-19T22:18:09.597Z,4
2022-10-19T22:21:09.534Z,4.1
2022-10-19T22:24:09.522Z,4.2
2022-10-19T22:27:09.538Z,4.2
2022-10-19T22:30:10.286Z,4.2
2022-10-19T22:33:09.558Z,4.4
2022-10-19T22:36:09.478Z,4.7
2022-10-19T22:39:09.535Z,4.9
2022-10-19T22:42:09.555Z,5
2022-10-19T22:45:09.501Z,5
2022-10-19T22:48:09.553Z,4.9
2022-10-19T22:51:09.509Z,5.1
2022-10-19T22:54:09.561Z,5.1
2022-10-19T22:57:09.499Z,5.1
2022-10-19T23:00:09.625Z,5.1
2022-10-19T23:03:09.576Z,5.1
2022-10-19T23:06:09.525Z,5.2
2022-10-19T23:09:09.791Z,5.2
2022-10-19T23:12:09.553Z,5.4
2022-10-19T23:15:09.496Z,5.4
2022-10-19T23:18:09.618Z,5.4
2022-10-19T23:21:09.529Z,5.4
2022-10-19T23:24:09.568Z,5.4
2022-10-19T23:27:09.552Z,5.6
2022-10-19T23:30:09.614Z,5.7
2022-10-19T23:33:09.526Z,5.7
2022-10-19T23:36:09.616Z,5.8
2022-10-19T23:39:09.508Z,5.7
2022-10-19T23:42:09.573Z,5.7
2022-10-19T23:45:09.623Z,5.8
2022-10-19T23:48:09.564Z,5.7
2022-10-19T23:51:09.517Z,5.7
2022-10-19T23:54:09.549Z,5.6
2022-10-19T23:57:09.476Z,5.6
